Time;durP1;ratioP1;P1;durP2;ratioP2;P2;SDS_P1;SDS_P2;PMS_P1;PMS_P2;Temp;Humidity;BMP_temperature;BMP_pressure;BME280_temperature;BME280_humidity;BME280_pressure;Samples;Min_cycle;Max_cycle;Signal;HPM_P1;HPM_P2
2022/04/06 00:00:15;;;;;;;9.80;4.90;;;;;;;7.74;80.11;99002.47;5033657;28;20053;-63
2022/04/06 00:02:59;;;;;;;16.27;4.20;;;;;;;7.73;79.92;98996.47;5033565;28;20187;-62
2022/04/06 00:05:43;;;;;;;11.23;4.50;;;;;;;7.73;79.86;98993.88;5033290;28;20048;-63
2022/04/06 00:08:27;;;;;;;14.00;5.03;;;;;;;7.73;79.47;98991.31;5033277;28;20443;-63
2022/04/06 00:11:10;;;;;;;12.00;4.93;;;;;;;7.74;80.21;98990.47;5033187;28;20460;-63
2022/04/06 00:13:54;;;;;;;9.68;4.15;;;;;;;7.73;79.84;98986.16;5032656;28;20087;-62
2022/04/06 00:16:38;;;;;;;16.35;5.20;;;;;;;7.73;79.78;98983.56;5033295;28;20468;-63
2022/04/06 00:19:22;;;;;;;11.05;4.22;;;;;;;7.72;79.83;98984.41;5032213;28;20404;-63
2022/04/06 00:22:06;;;;;;;11.15;4.82;;;;;;;7.73;79.86;98990.41;5033578;28;20048;-63
2022/04/06 00:24:51;;;;;;;12.55;5.22;;;;;;;7.72;79.92;98978.38;5033580;28;20076;-64
2022/04/06 00:27:35;;;;;;;16.27;5.00;;;;;;;7.70;79.96;98991.25;5032732;28;20111;-63
2022/04/06 00:30:19;;;;;;;;;;;;;;;7.72;79.89;98991.28;5033826;28;20088;-63
2022/04/06 00:33:03;;;;;;;9.27;5.10;;;;;;;7.70;79.89;98980.09;5033202;28;19931;-62
2022/04/06 00:35:47;;;;;;;10.50;5.45;;;;;;;7.70;79.78;98975.78;5033315;28;20044;-63
2022/04/06 00:38:31;;;;;;;10.32;5.63;;;;;;;7.70;79.82;98980.09;5033089;28;20063;-62
2022/04/06 00:41:15;;;;;;;11.55;5.53;;;;;;;7.71;79.59;98979.22;5033260;28;20151;-63
2022/04/06 00:44:13;;;;;;;10.98;5.25;;;;;;;7.70;79.82;98980.09;5033140;28;20048;-63
2022/04/06 00:46:57;;;;;;;12.70;5.05;;;;;;;7.70;79.71;98975.78;5032189;28;20136;-62
2022/04/06 00:49:41;;;;;;;14.18;5.35;;;;;;;7.71;80.04;98963.75;5032392;28;20469;-63
2022/04/06 00:52:25;;;;;;;10.40;6.15;;;;;;;7.72;79.84;98970.63;5032401;28;20432;-62
2022/04/06 00:55:11;;;;;;;12.75;4.95;;;;;;;7.72;79.75;98973.22;5032856;28;20479;-62
2022/04/06 00:57:56;;;;;;;14.50;5.47;;;;;;;7.72;79.67;98961.19;5032436;28;20052;-62
2022/04/06 01:00:40;;;;;;;15.95;6.07;;;;;;;7.72;79.62;98962.91;5032520;28;20049;-63
2022/04/06 01:03:24;;;;;;;19.67;5.93;;;;;;;7.72;79.83;98960.31;5032853;28;20056;-63
2022/04/06 01:06:08;;;;;;;8.90;4.63;;;;;;;7.69;79.88;98961.16;5033044;28;20068;-63
2022/04/06 01:08:52;;;;;;;9.90;5.75;;;;;;;7.72;79.61;98955.16;5032001;28;20068;-63
2022/04/06 01:11:36;;;;;;;13.23;5.07;;;;;;;7.71;79.87;98958.59;5033139;28;20056;-63
2022/04/06 01:14:20;;;;;;;10.35;5.38;;;;;;;7.71;79.89;98954.31;5032993;28;20051;-63
2022/04/06 01:17:07;;;;;;;12.43;5.47;;;;;;;7.71;79.88;98953.44;5033097;28;20084;-63
2022/04/06 01:19:53;;;;;;;11.07;4.35;;;;;;;7.71;79.72;98950.84;5033665;28;20047;-63
2022/04/06 01:22:38;;;;;;;8.93;5.03;;;;;;;7.71;79.56;98946.56;5036443;28;20064;-63
2022/04/06 01:25:22;;;;;;;9.57;4.53;;;;;;;7.70;79.72;98952.56;5036307;28;20103;-63
2022/04/06 01:28:07;;;;;;;6.57;4.72;;;;;;;7.71;79.76;98948.28;5036705;28;20084;-62
2022/04/06 01:30:51;;;;;;;18.67;5.55;;;;;;;7.71;79.71;98949.16;5036288;28;20088;-62
2022/04/06 01:33:36;;;;;;;15.10;5.65;;;;;;;7.72;79.79;98939.69;5034839;28;20079;-63
2022/04/06 01:36:20;;;;;;;9.40;4.38;;;;;;;7.72;79.89;98944.84;5036467;28;20048;-63
2022/04/06 01:39:04;;;;;;;10.43;4.60;;;;;;;7.71;79.64;98954.31;5036080;28;20044;-63
2022/04/06 01:41:48;;;;;;;11.85;5.60;;;;;;;7.71;79.95;98953.44;5035045;28;20583;-62
2022/04/06 01:44:32;;;;;;;11.93;5.43;;;;;;;7.71;79.62;98949.16;5036158;28;20070;-63
2022/04/06 01:47:18;;;;;;;9.90;5.28;;;;;;;7.71;79.47;98938.84;5034716;28;20416;-63
2022/04/06 01:53:06;;;;;;;11.20;5.10;;;;;;;7.71;79.65;98956.88;5035889;28;20451;-62
2022/04/06 01:55:50;;;;;;;12.18;5.22;;;;;;;7.72;79.58;98937.09;5035415;28;20416;-63
2022/04/06 01:58:34;;;;;;;;;;;;;;;7.70;79.57;98936.25;5036309;28;20135;-63
2022/04/06 02:01:18;;;;;;;13.40;5.00;;;;;;;7.69;79.56;98935.38;5035279;28;19919;-63
2022/04/06 02:04:06;;;;;;;12.80;5.18;;;;;;;7.69;79.64;98942.25;5034992;28;20057;-63
2022/04/06 02:06:50;;;;;;;12.18;5.47;;;;;;;7.70;79.71;98938.84;5035679;28;20083;-62
2022/04/06 02:09:36;;;;;;;14.07;6.28;;;;;;;7.69;79.57;98930.22;5035498;28;20041;-63
2022/04/06 02:12:22;;;;;;;8.90;4.57;;;;;;;7.70;79.62;98931.94;5034652;28;20099;-63
2022/04/06 02:15:11;;;;;;;15.00;6.03;;;;;;;7.70;79.57;98933.66;5034804;28;20550;-62
2022/04/06 02:17:56;;;;;;;13.50;5.22;;;;;;;7.68;79.43;98920.75;5034542;28;20650;-63
2022/04/06 02:20:40;;;;;;;14.15;5.75;;;;;;;7.70;79.33;98924.22;5034144;28;20045;-63
2022/04/06 02:23:24;;;;;;;14.32;6.03;;;;;;;7.68;79.40;98923.31;5034465;28;20072;-63
2022/04/06 02:26:08;;;;;;;15.65;6.28;;;;;;;7.69;79.32;98921.63;5035307;28;20123;-63
2022/04/06 02:28:53;;;;;;;9.15;6.00;;;;;;;7.70;79.29;98926.78;5034535;28;20570;-62
2022/04/06 02:31:37;;;;;;;11.05;5.70;;;;;;;7.69;79.50;98924.22;5034342;28;20044;-63
2022/04/06 02:34:21;;;;;;;13.43;5.70;;;;;;;7.68;79.53;98919.91;5035322;28;20551;-64
2022/04/06 02:37:09;;;;;;;10.45;6.30;;;;;;;7.69;79.54;98916.47;5035419;28;20040;-62
2022/04/06 02:39:53;;;;;;;16.52;5.93;;;;;;;7.69;79.66;98911.31;5034391;28;20115;-62
2022/04/06 02:42:37;;;;;;;13.10;5.93;;;;;;;7.68;79.48;98905.28;5035302;28;20519;-63
2022/04/06 02:45:21;;;;;;;15.77;5.72;;;;;;;7.68;79.30;98904.41;5034839;28;20049;-64
2022/04/06 02:48:05;;;;;;;13.50;6.00;;;;;;;7.68;79.76;98907.00;5035675;28;20144;-63
2022/04/06 02:50:49;;;;;;;;;;;;;;;7.67;79.53;98902.69;5035354;28;20088;-62
2022/04/06 02:53:33;;;;;;;12.32;5.78;;;;;;;7.66;79.48;98906.97;5034729;28;20335;-63
2022/04/06 02:56:17;;;;;;;10.57;5.75;;;;;;;7.66;79.50;98906.97;5034477;28;20076;-63
2022/04/06 02:59:02;;;;;;;15.10;6.30;;;;;;;7.65;79.37;98901.81;5033819;28;20099;-63
2022/04/06 03:01:46;;;;;;;14.82;5.80;;;;;;;7.65;79.39;98896.66;5033689;28;20131;-63
2022/04/06 03:04:30;;;;;;;16.95;7.05;;;;;;;7.64;79.30;98898.34;5034288;28;20193;-64
2022/04/06 03:07:17;;;;;;;18.90;5.70;;;;;;;7.64;79.60;98885.44;5033911;28;20048;-63
2022/04/06 03:10:01;;;;;;;16.33;6.18;;;;;;;7.65;79.54;98894.91;5033924;28;20043;-63
2022/04/06 03:12:45;;;;;;;13.75;5.53;;;;;;;7.65;79.46;98889.75;5033081;28;20099;-63
2022/04/06 03:15:29;;;;;;;12.95;5.47;;;;;;;7.66;79.30;98893.22;5033792;28;20079;-63
2022/04/06 03:18:13;;;;;;;18.88;6.32;;;;;;;7.65;79.46;98884.59;5034379;28;20048;-62
2022/04/06 03:20:57;;;;;;;17.70;7.28;;;;;;;7.65;79.44;98892.34;5034075;28;20049;-63
2022/04/06 03:23:41;;;;;;;;;;;;;;;7.64;79.38;98879.44;5033884;28;20052;-62
2022/04/06 03:26:25;;;;;;;11.05;5.63;;;;;;;7.62;79.48;98885.44;5033919;28;20071;-63
2022/04/06 03:29:09;;;;;;;16.90;6.13;;;;;;;7.61;79.54;98873.41;5033155;28;20052;-63
2022/04/06 03:31:53;;;;;;;10.15;6.63;;;;;;;7.63;79.31;98883.72;5033722;28;20128;-63
2022/04/06 03:34:37;;;;;;;10.52;6.15;;;;;;;7.62;79.47;98872.56;5033790;28;20567;-63
2022/04/06 03:37:21;;;;;;;10.23;5.38;;;;;;;7.64;79.54;98875.13;5034202;28;20056;-63
2022/04/06 03:40:06;;;;;;;12.70;5.80;;;;;;;7.62;79.16;98863.97;5034184;28;20440;-63
2022/04/06 03:42:50;;;;;;;12.13;5.10;;;;;;;7.64;79.30;98869.97;5032450;28;20103;-63
2022/04/06 03:45:34;;;;;;;11.93;5.80;;;;;;;7.62;79.35;98854.50;5034153;28;20048;-63
2022/04/06 03:48:21;;;;;;;12.60;6.05;;;;;;;7.61;79.36;98849.34;5034102;28;20136;-63
2022/04/06 03:51:05;;;;;;;13.43;4.72;;;;;;;7.62;79.18;98856.22;5033131;28;20412;-63
2022/04/06 03:53:49;;;;;;;16.98;5.35;;;;;;;7.61;79.40;98855.34;5032826;28;20047;-63
2022/04/06 03:56:33;;;;;;;15.02;4.90;;;;;;;7.60;79.44;98855.34;5033046;28;20083;-63
2022/04/06 03:59:18;;;;;;;7.13;4.15;;;;;;;7.60;79.08;98853.63;5033752;28;20103;-62
2022/04/06 04:02:02;;;;;;;;;;;;;;;7.59;79.05;98846.72;5033833;28;20067;-63
2022/04/06 04:04:46;;;;;;;9.35;4.50;;;;;;;7.60;79.50;98855.34;5033795;28;19928;-63
2022/04/06 04:07:32;;;;;;;10.38;4.38;;;;;;;7.58;79.05;98849.31;5033247;28;20099;-63
2022/04/06 04:10:19;;;;;;;14.43;5.30;;;;;;;7.59;79.09;98851.03;5032654;28;20044;-63
2022/04/06 04:13:03;;;;;;;10.35;4.15;;;;;;;7.58;79.13;98851.91;5033044;28;20068;-63
2022/04/06 04:15:47;;;;;;;9.38;4.30;;;;;;;7.58;79.36;98855.31;5032707;28;20052;-62
2022/04/06 04:18:31;;;;;;;12.70;5.43;;;;;;;7.58;79.30;98846.72;5033318;28;20084;-63
2022/04/06 04:21:33;;;;;;;;;;;;;;;7.56;78.87;98848.44;5033477;28;20044;-63
2022/04/06 04:24:18;;;;;;;8.43;4.25;;;;;;;7.55;79.39;98844.13;5032968;28;19974;-63
2022/04/06 04:27:02;;;;;;;;;;;;;;;7.54;79.15;98847.56;5034101;28;20052;-63
2022/04/06 04:29:46;;;;;;;10.38;3.55;;;;;;;7.52;79.01;98836.34;5032861;28;19940;-63
2022/04/06 04:32:30;;;;;;;11.07;4.05;;;;;;;7.52;79.02;98842.41;5032757;28;20044;-63
2022/04/06 04:35:14;;;;;;;8.13;4.95;;;;;;;7.55;79.27;98841.53;5033180;28;20048;-63
2022/04/06 04:37:57;;;;;;;13.20;4.90;;;;;;;7.54;79.13;98837.25;5033174;28;20412;-63
2022/04/06 04:40:41;;;;;;;11.27;4.57;;;;;;;7.54;79.11;98834.66;5033975;28;20052;-63
2022/04/06 04:43:26;;;;;;;8.52;4.50;;;;;;;7.55;79.09;98828.66;5033177;28;20049;-63
2022/04/06 04:46:10;;;;;;;12.32;4.78;;;;;;;7.54;78.95;98824.34;5033248;28;20048;-63
2022/04/06 04:48:54;;;;;;;;;;;;;;;7.52;78.95;98824.34;5032681;28;20117;-63
2022/04/06 04:51:38;;;;;;;8.43;4.22;;;;;;;7.51;79.25;98824.31;5032622;28;19959;-62
2022/04/06 04:54:24;;;;;;;14.32;4.57;;;;;;;7.52;78.82;98813.16;5034019;28;20115;-63
2022/04/06 04:57:08;;;;;;;7.85;4.93;;;;;;;7.52;79.03;98820.88;5037235;28;20125;-63
2022/04/06 04:59:52;;;;;;;9.52;4.28;;;;;;;7.52;78.92;98824.34;5037036;28;20052;-63
2022/04/06 05:02:39;;;;;;;;;;;;;;;7.51;79.05;98814.00;5037042;28;20135;-62
2022/04/06 05:05:23;;;;;;;9.82;4.28;;;;;;;7.50;78.69;98813.16;5035500;28;19940;-63
2022/04/06 05:08:07;;;;;;;;;;;;;;;7.50;78.82;98822.59;5036631;28;20048;-63
2022/04/06 05:10:51;;;;;;;16.25;5.25;;;;;;;7.49;79.14;98819.16;5036213;28;19963;-63
2022/04/06 05:13:36;;;;;;;8.80;4.55;;;;;;;7.50;79.08;98820.00;5036563;28;20053;-63
2022/04/06 05:16:20;;;;;;;10.65;4.00;;;;;;;7.49;79.19;98823.44;5036337;28;20100;-64
2022/04/06 05:19:04;;;;;;;10.85;4.20;;;;;;;7.49;78.89;98806.25;5036497;28;20151;-63
2022/04/06 05:21:48;;;;;;;10.20;4.68;;;;;;;7.49;79.09;98819.16;5036809;28;20060;-63
2022/04/06 05:24:32;;;;;;;7.00;4.30;;;;;;;7.48;78.66;98820.00;5036811;28;20052;-63
2022/04/06 05:27:16;;;;;;;14.13;4.65;;;;;;;7.50;78.73;98818.31;5036528;28;20040;-63
2022/04/06 05:29:59;;;;;;;11.45;4.82;;;;;;;7.50;78.62;98818.31;5036136;28;20072;-63
2022/04/06 05:32:45;;;;;;;9.73;4.43;;;;;;;7.50;78.77;98831.19;5036491;28;20048;-62
2022/04/06 05:35:29;;;;;;;24.00;5.18;;;;;;;7.50;78.79;98825.16;5035824;28;20102;-62
2022/04/06 05:38:14;;;;;;;;;;;;;;;7.48;78.61;98825.16;5036074;28;20555;-62
2022/04/06 05:40:58;;;;;;;13.70;5.70;;;;;;;7.47;78.59;98819.13;5036152;28;20362;-63
2022/04/06 05:43:42;;;;;;;7.93;4.65;;;;;;;7.49;78.58;98824.31;5034919;28;20063;-63
2022/04/06 05:46:27;;;;;;;12.02;4.85;;;;;;;7.49;78.98;98821.72;5035820;28;20130;-63
2022/04/06 05:49:11;;;;;;;10.77;5.38;;;;;;;7.49;78.95;98818.28;5035908;28;20582;-64
2022/04/06 05:51:55;;;;;;;8.48;4.82;;;;;;;7.50;78.66;98822.59;5035858;28;20079;-63
2022/04/06 05:54:39;;;;;;;9.70;4.15;;;;;;;7.47;78.88;98819.13;5035828;28;20048;-64
2022/04/06 05:57:23;;;;;;;8.48;3.60;;;;;;;7.47;78.81;98824.28;5035001;28;20511;-62
2022/04/06 06:00:08;;;;;;;10.32;4.78;;;;;;;7.49;78.87;98824.31;5036365;28;20052;-63
2022/04/06 06:02:53;;;;;;;6.97;3.85;;;;;;;7.48;78.76;98825.16;5035801;28;20119;-63
2022/04/06 06:05:37;;;;;;;8.23;3.55;;;;;;;7.48;78.50;98825.16;5035122;28;20048;-63
2022/04/06 06:08:21;;;;;;;6.95;3.40;;;;;;;7.47;78.52;98826.84;5034476;28;20064;-62
2022/04/06 06:12:58;;;;;;;6.25;4.20;;;;;;;7.47;78.71;98829.44;5070809;28;20414;-63
2022/04/06 06:15:42;;;;;;;10.60;3.78;;;;;;;7.47;78.55;98821.69;5070712;28;20103;-63
2022/04/06 06:18:27;;;;;;;8.80;4.05;;;;;;;7.47;78.53;98826.00;5070778;28;20059;-63
2022/04/06 06:21:11;;;;;;;12.52;4.30;;;;;;;7.47;78.56;98824.28;5070000;28;20052;-63
2022/04/06 06:23:55;;;;;;;11.25;4.45;;;;;;;7.47;78.16;98823.44;5070591;28;20553;-63
2022/04/06 06:26:43;;;;;;;8.02;3.55;;;;;;;7.47;78.50;98813.13;5070230;28;20051;-62
2022/04/06 06:29:27;;;;;;;7.45;3.80;;;;;;;7.49;78.49;98818.28;5069327;28;20051;-65
2022/04/06 06:32:11;;;;;;;9.77;3.28;;;;;;;7.45;78.20;98813.13;5070580;28;20052;-63
2022/04/06 06:34:55;;;;;;;5.10;3.28;;;;;;;7.47;78.28;98815.69;5069594;28;20450;-63
2022/04/06 06:37:51;;;;;;;8.90;3.67;;;;;;;7.46;78.21;98813.97;5070269;28;20416;-63
2022/04/06 06:40:35;;;;;;;9.80;4.38;;;;;;;7.45;78.16;98813.13;5069297;28;20074;-63
2022/04/06 06:43:19;;;;;;;7.03;3.05;;;;;;;7.46;77.96;98821.69;5070378;28;20408;-62
2022/04/06 06:46:03;;;;;;;4.88;2.90;;;;;;;7.42;78.28;98805.34;5070248;28;20423;-63
2022/04/06 06:48:48;;;;;;;5.07;3.45;;;;;;;7.45;78.33;98822.53;5069760;28;20140;-63
2022/04/06 06:51:32;;;;;;;13.07;4.07;;;;;;;7.44;78.05;98818.25;5069275;28;20128;-63
2022/04/06 06:54:17;;;;;;;9.20;2.97;;;;;;;7.46;78.15;98814.84;5069008;28;20094;-63
2022/04/06 06:57:01;;;;;;;7.50;3.47;;;;;;;7.45;78.24;98815.69;5070062;28;20128;-63
2022/04/06 06:59:45;;;;;;;6.70;3.28;;;;;;;7.45;78.20;98801.91;5070116;28;20052;-63
2022/04/06 07:02:29;;;;;;;5.65;3.50;;;;;;;7.44;78.11;98815.66;5069778;28;20052;-63
2022/04/06 07:05:13;;;;;;;7.65;3.15;;;;;;;7.44;78.17;98813.09;5070062;28;20047;-63
2022/04/06 07:08:03;;;;;;;7.03;3.83;;;;;;;7.42;77.81;98804.47;5069526;28;20040;-64
2022/04/06 07:10:48;;;;;;;8.00;3.63;;;;;;;7.44;77.72;98803.66;5068568;28;20408;-63
2022/04/06 07:13:32;;;;;;;8.95;3.35;;;;;;;7.42;78.06;98792.47;5068364;28;20047;-63
2022/04/06 07:16:16;;;;;;;;;;;;;;;7.42;77.99;98792.47;5069819;28;20521;-63
2022/04/06 07:19:00;;;;;;;10.35;3.45;;;;;;;7.42;78.02;98799.31;5069229;28;19924;-62
2022/04/06 07:21:44;;;;;;;3.85;3.30;;;;;;;7.41;77.72;98790.72;5068937;28;20078;-63
2022/04/06 07:24:28;;;;;;;5.97;3.25;;;;;;;7.40;77.93;98790.69;5055334;28;20052;-63
2022/04/06 07:27:12;;;;;;;5.85;3.47;;;;;;;7.42;77.96;98791.56;5056084;28;20060;-63
2022/04/06 07:29:56;;;;;;;8.55;3.20;;;;;;;7.41;77.81;98787.28;5054934;28;20092;-63
2022/04/06 07:32:40;;;;;;;17.70;4.18;;;;;;;7.41;77.99;98776.97;5055127;28;20075;-62
2022/04/06 07:35:25;;;;;;;8.23;2.97;;;;;;;7.42;77.98;98782.16;5056377;28;20519;-63
2022/04/06 07:38:11;;;;;;;4.97;2.90;;;;;;;7.41;77.51;98779.53;5056066;28;20068;-63
2022/04/06 07:40:56;;;;;;;8.07;2.92;;;;;;;7.43;77.92;98775.25;5056167;28;20047;-63
2022/04/06 07:43:40;;;;;;;7.18;4.43;;;;;;;7.42;77.75;98763.22;5055545;28;20049;-63
2022/04/06 07:46:24;;;;;;;8.60;3.45;;;;;;;7.42;77.67;98766.69;5055764;28;20095;-63
2022/04/06 07:49:07;;;;;;;11.93;3.45;;;;;;;7.42;77.74;98760.66;5132112;27;20191;-62
2022/04/06 07:51:50;;;;;;;;;;;;;;;7.38;77.05;98780.38;5117089;28;20072;-63
2022/04/06 07:54:34;;;;;;;7.15;3.42;;;;;;;7.39;77.63;98766.66;5116791;28;19923;-63
2022/04/06 07:57:24;;;;;;;8.48;3.50;;;;;;;7.40;77.62;98777.81;5116515;28;20054;-65
2022/04/06 08:00:17;;;;;;;11.23;4.00;;;;;;;7.40;77.56;98764.91;5115980;28;20472;-64
2022/04/06 08:03:02;;;;;;;8.15;3.97;;;;;;;7.41;77.38;98762.38;5131642;28;20050;-63
2022/04/06 08:05:46;;;;;;;;;;;;;;;7.41;77.31;98756.34;5116636;28;20096;-63
2022/04/06 08:08:30;;;;;;;10.00;4.75;;;;;;;7.41;77.35;98758.91;5131173;28;19922;-63
2022/04/06 08:11:14;;;;;;;8.65;3.78;;;;;;;7.41;77.22;98751.19;5131313;28;20042;-63
2022/04/06 08:13:58;;;;;;;11.95;3.75;;;;;;;7.42;77.32;98756.38;5131497;28;20116;-64
2022/04/06 08:16:41;;;;;;;6.75;3.00;;;;;;;7.43;77.58;98752.06;5131156;28;20046;-64
2022/04/06 08:19:26;;;;;;;7.45;3.65;;;;;;;7.44;77.21;98741.78;5131296;28;20414;-63
2022/04/06 08:22:10;;;;;;;7.55;3.53;;;;;;;7.45;77.63;98738.34;5144550;27;20168;-63
2022/04/06 08:24:54;;;;;;;6.00;2.78;;;;;;;7.46;77.49;98740.09;5131509;28;20085;-63
2022/04/06 08:27:41;;;;;;;9.13;3.63;;;;;;;7.49;77.32;98740.94;5115728;28;20058;-63
2022/04/06 08:30:25;;;;;;;7.25;3.38;;;;;;;7.51;77.30;98740.13;5130906;28;20570;-63
2022/04/06 08:33:10;;;;;;;5.43;3.65;;;;;;;7.52;77.28;98746.13;5116110;28;20038;-63
2022/04/06 08:35:54;;;;;;;8.80;4.20;;;;;;;7.55;77.47;98748.72;5115481;28;20467;-63
2022/04/06 08:38:38;;;;;;;4.47;3.42;;;;;;;7.54;77.42;98745.28;5115264;28;20193;-63
2022/04/06 08:41:26;;;;;;;6.70;2.80;;;;;;;7.54;77.40;98747.88;5115243;28;20055;-63
2022/04/06 08:44:10;;;;;;;8.15;3.10;;;;;;;7.56;77.53;98745.28;5130989;28;20084;-63
2022/04/06 08:46:58;;;;;;;8.98;2.80;;;;;;;7.56;77.24;98750.44;5130414;28;20524;-63
2022/04/06 08:49:45;;;;;;;7.03;2.95;;;;;;;7.56;77.41;98738.41;5115470;28;20046;-63
2022/04/06 08:52:35;;;;;;;7.93;3.22;;;;;;;7.56;77.18;98743.56;5115708;28;20050;-63
2022/04/06 08:55:19;;;;;;;10.07;2.70;;;;;;;7.60;77.02;98747.06;5115136;28;20046;-63
2022/04/06 08:58:04;;;;;;;5.80;3.25;;;;;;;7.62;77.19;98753.09;5130880;28;20455;-62
2022/04/06 09:00:48;;;;;;;6.63;3.35;;;;;;;7.62;77.18;98746.19;5101277;28;20097;-63
2022/04/06 09:03:32;;;;;;;7.55;3.92;;;;;;;7.62;77.13;98743.63;5117156;28;20047;-62
2022/04/06 09:06:18;;;;;;;7.78;2.78;;;;;;;7.62;76.94;98750.50;5101129;28;20092;-63
2022/04/06 09:09:03;;;;;;;9.27;3.72;;;;;;;7.62;77.21;98745.34;5116703;28;20513;-62
2022/04/06 09:11:48;;;;;;;9.68;3.15;;;;;;;7.64;77.21;98747.94;5116566;28;20047;-62
2022/04/06 09:14:33;;;;;;;10.00;3.30;;;;;;;7.63;77.04;98739.31;5116200;28;20046;-63
2022/04/06 09:17:22;;;;;;;6.45;3.13;;;;;;;7.66;76.83;98743.66;5116238;28;20071;-63
2022/04/06 09:20:06;;;;;;;8.65;3.30;;;;;;;7.67;77.29;98733.34;5101003;28;20465;-64
2022/04/06 09:22:50;;;;;;;;;;;;;;;7.68;77.15;98729.06;5117197;28;20505;-63
2022/04/06 09:25:38;;;;;;;6.03;3.33;;;;;;;7.68;76.89;98729.06;5101327;28;20271;-63
2022/04/06 09:28:22;;;;;;;5.18;3.10;;;;;;;7.71;77.16;98734.22;5100729;28;20460;-63
2022/04/06 09:31:06;;;;;;;9.25;3.20;;;;;;;7.72;77.09;98738.50;5115942;28;20042;-63
2022/04/06 09:34:14;;;;;;;10.57;4.35;;;;;;;7.71;76.93;98723.88;5100638;28;20058;-63
2022/04/06 09:36:57;;;;;;;4.50;3.47;;;;;;;7.72;76.97;98731.66;5115958;28;20047;-63
2022/04/06 09:39:48;;;;;;;4.72;2.90;;;;;;;7.73;76.88;98732.50;5100984;28;20604;-63
2022/04/06 09:42:49;;;;;;;9.75;3.90;;;;;;;7.74;77.03;98737.69;5100717;28;20046;-62
2022/04/06 09:48:56;;;;;;;5.53;3.65;;;;;;;7.74;77.01;98729.06;5115466;28;20510;-63
2022/04/06 09:51:43;;;;;;;7.53;3.40;;;;;;;7.73;76.99;98725.66;5100419;28;20042;-64
2022/04/06 09:54:31;;;;;;;6.65;3.22;;;;;;;7.75;77.09;98720.50;5100247;28;20104;-63
2022/04/06 09:57:16;;;;;;;8.57;3.25;;;;;;;7.75;76.97;98717.91;5100533;28;20559;-63
2022/04/06 10:00:01;;;;;;;6.70;3.15;;;;;;;7.76;76.87;98714.47;5100087;28;20047;-63
2022/04/06 10:02:46;;;;;;;;;;;;;;;7.76;76.92;98717.06;5116341;28;20097;-63
2022/04/06 10:05:31;;;;;;;5.07;3.30;;;;;;;7.77;76.91;98716.22;5100538;28;19919;-63
2022/04/06 10:08:17;;;;;;;7.47;3.05;;;;;;;7.77;76.98;98718.78;5099794;28;20050;-64
2022/04/06 10:11:03;;;;;;;8.43;3.15;;;;;;;7.78;76.97;98710.19;5099383;28;20088;-64
2022/04/06 10:13:47;;;;;;;5.10;3.40;;;;;;;7.78;76.94;98716.19;5099867;28;20094;-63
2022/04/06 10:16:38;;;;;;;;;;;;;;;7.79;76.96;98717.09;5100572;28;20088;-63
2022/04/06 10:19:30;;;;;;;5.18;3.10;;;;;;;7.77;76.74;98701.59;5100182;28;20015;-63
2022/04/06 10:22:25;;;;;;;4.97;2.92;;;;;;;7.79;76.73;98701.59;5115633;28;20067;-63
2022/04/06 10:25:34;;;;;;;8.68;3.65;;;;;;;7.80;76.99;98698.19;5115281;28;20051;-63
2022/04/06 10:28:21;;;;;;;6.50;2.75;;;;;;;7.80;76.91;98703.34;5099521;28;20047;-63
2022/04/06 10:31:11;;;;;;;8.38;2.95;;;;;;;7.83;76.73;98707.63;5115769;28;20085;-62
2022/04/06 10:34:22;;;;;;;6.13;3.30;;;;;;;7.82;76.89;98699.06;5114791;28;20050;-63
2022/04/06 10:37:15;;;;;;;8.77;3.45;;;;;;;7.82;76.92;98691.31;5099967;28;20059;-63
2022/04/06 10:40:00;;;;;;;5.25;2.88;;;;;;;7.84;76.80;98693.88;5114788;28;20419;-63
2022/04/06 10:42:45;;;;;;;;;;;;;;;7.83;76.69;98703.34;5100261;28;20078;-63
2022/04/06 10:45:34;;;;;;;3.88;2.75;;;;;;;7.82;76.95;98691.31;5099398;28;19919;-62
2022/04/06 10:48:18;;;;;;;8.95;3.60;;;;;;;7.82;77.22;98699.06;5099023;28;20050;-64
2022/04/06 10:51:50;;;;;;;6.63;3.20;;;;;;;7.84;76.91;98686.16;5114331;28;20086;-63
2022/04/06 10:54:41;;;;;;;6.70;3.28;;;;;;;7.84;76.78;98679.28;5037639;28;20086;-63
2022/04/06 10:57:55;;;;;;;5.72;2.67;;;;;;;7.85;76.60;98674.97;5099332;28;20086;-63
2022/04/06 11:00:41;;;;;;;7.10;3.65;;;;;;;7.85;76.77;98677.56;5099488;28;20050;-63
2022/04/06 11:03:28;;;;;;;5.00;2.83;;;;;;;7.85;76.84;98678.44;5098945;28;20042;-63
2022/04/06 11:06:12;;;;;;;7.25;3.28;;;;;;;7.86;76.88;98676.69;5099234;28;20464;-63
2022/04/06 11:12:22;;;;;;;4.38;3.10;;;;;;;7.86;76.97;98672.41;5114399;28;20088;-62
2022/04/06 11:15:09;;;;;;;6.32;3.05;;;;;;;7.86;76.74;98667.22;5113880;28;20054;-63
2022/04/06 11:17:53;;;;;;;7.40;3.30;;;;;;;7.88;76.61;98662.94;5114305;28;20069;-63
2022/04/06 11:20:38;;;;;;;6.25;3.78;;;;;;;7.90;77.00;98650.06;5114260;28;20101;-63
2022/04/06 11:23:22;;;;;;;6.82;4.10;;;;;;;7.91;76.72;98637.16;5113939;28;20042;-63
2022/04/06 11:26:06;;;;;;;7.88;3.67;;;;;;;7.91;76.72;98644.91;5114211;28;20070;-63
2022/04/06 11:28:59;;;;;;;5.20;3.17;;;;;;;7.91;76.58;98655.22;5114066;28;20047;-63
2022/04/06 11:32:06;;;;;;;3.88;3.17;;;;;;;7.94;76.78;98641.50;5114045;28;20050;-63
2022/04/06 11:34:50;;;;;;;4.45;3.28;;;;;;;7.93;76.68;98643.22;5113741;28;20051;-63
2022/04/06 11:37:48;;;;;;;4.38;2.70;;;;;;;7.94;76.77;98641.50;5099144;28;20054;-63
2022/04/06 11:40:33;;;;;;;6.55;3.40;;;;;;;7.94;76.67;98633.75;5098934;28;20050;-63
2022/04/06 11:43:17;;;;;;;4.38;3.53;;;;;;;7.95;76.80;98632.88;5098317;28;20072;-63
2022/04/06 11:46:01;;;;;;;5.30;3.30;;;;;;;7.95;76.71;98626.88;5114104;28;20095;-64
2022/04/06 11:48:45;;;;;;;7.70;3.30;;;;;;;7.95;76.38;98632.88;5114036;28;20456;-63
2022/04/06 11:51:30;;;;;;;;;;;;;;;7.95;76.52;98621.72;5114139;28;20093;-62
2022/04/06 11:54:15;;;;;;;6.72;3.85;;;;;;;7.95;76.78;98624.28;5113605;28;19918;-64
2022/04/06 11:56:59;;;;;;;5.55;3.80;;;;;;;7.97;77.05;98614.84;5098799;28;20077;-63
2022/04/06 11:59:56;;;;;;;4.15;3.60;;;;;;;7.96;76.66;98613.97;5113323;28;20559;-64
2022/04/06 12:02:53;;;;;;;4.80;3.13;;;;;;;7.96;76.61;98616.53;5098379;28;20062;-63
2022/04/06 12:05:46;;;;;;;6.20;3.17;;;;;;;7.97;76.63;98609.69;5098687;28;20050;-62
2022/04/06 12:08:34;;;;;;;9.38;3.80;;;;;;;7.97;76.53;98607.09;5097948;28;20109;-64
2022/04/06 12:11:21;;;;;;;4.35;3.55;;;;;;;7.97;76.51;98605.38;5098486;28;20525;-63
2022/04/06 12:14:16;;;;;;;9.48;3.33;;;;;;;7.98;76.31;98603.66;5113223;28;20464;-63
2022/04/06 12:17:00;;;;;;;7.28;4.80;;;;;;;7.98;76.43;98596.78;5098819;28;20529;-63
2022/04/06 12:19:44;;;;;;;8.43;3.65;;;;;;;7.99;76.36;98602.81;5113722;28;20046;-63
2022/04/06 12:22:28;;;;;;;6.20;3.38;;;;;;;7.98;76.23;98595.94;5113266;28;20046;-63
2022/04/06 12:25:33;;;;;;;5.80;3.67;;;;;;;8.00;76.61;98591.63;5113143;28;20051;-63
2022/04/06 12:28:25;;;;;;;4.65;2.85;;;;;;;8.00;76.38;98591.63;5097991;28;20050;-63
2022/04/06 12:31:12;;;;;;;6.82;3.45;;;;;;;8.00;76.61;98581.31;5097701;28;20088;-63
2022/04/06 12:33:56;;;;;;;6.05;3.67;;;;;;;8.01;76.35;98583.03;5098766;28;20046;-63
2022/04/06 12:36:48;;;;;;;10.00;3.45;;;;;;;8.01;76.81;98567.56;5116898;28;20073;-63
2022/04/06 12:39:32;;;;;;;9.30;3.60;;;;;;;8.02;76.24;98579.59;5102155;28;20054;-63
2022/04/06 12:42:17;;;;;;;6.05;3.40;;;;;;;8.03;76.12;98565.81;5117216;28;20068;-63
2022/04/06 12:45:02;;;;;;;3.25;2.95;;;;;;;8.03;76.35;98563.25;5116961;28;20067;-63
2022/04/06 12:47:46;;;;;;;;;;;;;;;8.01;76.46;98547.78;5117270;28;20054;-63
2022/04/06 12:50:36;;;;;;;4.13;3.03;;;;;;;8.02;76.14;98558.97;5116656;28;19945;-63
2022/04/06 12:53:20;;;;;;;4.32;2.90;;;;;;;8.02;76.20;98556.38;5101400;28;20051;-63
2022/04/06 12:56:11;;;;;;;5.18;2.78;;;;;;;8.03;76.65;98547.75;5117097;28;20046;-64
2022/04/06 12:59:11;;;;;;;11.30;4.28;;;;;;;8.02;76.41;98551.22;5101846;28;20053;-63
2022/04/06 13:01:56;;;;;;;4.53;3.05;;;;;;;8.03;76.35;98550.34;5116760;28;20068;-63
2022/04/06 13:04:40;;;;;;;7.82;3.28;;;;;;;8.03;76.26;98542.59;5117073;28;20046;-63
2022/04/06 13:07:24;;;;;;;4.65;3.00;;;;;;;8.03;76.41;98553.81;5116484;28;20521;-62
2022/04/06 13:10:11;;;;;;;4.53;2.55;;;;;;;8.03;76.21;98547.75;5116667;28;20517;-63
2022/04/06 13:12:57;;;;;;;4.15;3.05;;;;;;;8.03;76.30;98534.84;5116216;28;20089;-64
2022/04/06 13:15:41;;;;;;;3.25;2.92;;;;;;;8.03;76.25;98533.16;5101513;28;20054;-63
2022/04/06 13:18:25;;;;;;;6.93;3.13;;;;;;;8.05;76.22;98538.31;5116691;28;20054;-63
2022/04/06 13:21:11;;;;;;;5.20;3.13;;;;;;;8.04;76.21;98527.13;5116785;28;20402;-63
2022/04/06 13:23:55;;;;;;;3.92;2.47;;;;;;;8.05;76.24;98527.97;5101508;28;20545;-63